createdAt,value
2019-02-04T00:00:30.790Z,100066.88
2019-02-04T00:02:57.602Z,100061.61
2019-02-04T00:05:24.351Z,100056.22
2019-02-04T00:07:51.074Z,100055.41
2019-02-04T00:10:17.944Z,100049.91
2019-02-04T00:12:44.923Z,100056.84
2019-02-04T00:15:11.716Z,100055.02
2019-02-04T00:17:38.571Z,100056.39
2019-02-04T00:20:05.811Z,100058.35
2019-02-04T00:22:32.742Z,100054.69
2019-02-04T00:24:59.608Z,100055.59
2019-02-04T00:27:26.336Z,100077.75
2019-02-04T00:29:53.282Z,100056.36
2019-02-04T00:32:20.276Z,100051.71
2019-02-04T00:34:47.875Z,100058.47
2019-02-04T00:37:14.730Z,100056.98
2019-02-04T00:39:41.527Z,100064.45
2019-02-04T00:42:08.723Z,100061.46
2019-02-04T00:44:35.466Z,100057.41
2019-02-04T00:47:02.343Z,100057.87
2019-02-04T00:49:29.204Z,100061.02
2019-02-04T00:51:56.808Z,100058.25
2019-02-04T00:54:23.988Z,100056.32
2019-02-04T00:56:50.716Z,100062.16
2019-02-04T00:59:17.527Z,100062.78
2019-02-04T01:01:44.286Z,100064.82
2019-02-04T01:04:11.168Z,100065.16
2019-02-04T01:06:38.189Z,100077.70
2019-02-04T01:09:07.448Z,100058.55
2019-02-04T01:11:34.208Z,100059.45
2019-02-04T01:14:01.045Z,100061.30
2019-02-04T01:16:30.476Z,100057.24
2019-02-04T01:18:57.344Z,100053.34
2019-02-04T01:21:24.384Z,100066.89
2019-02-04T01:23:51.384Z,100059.80
2019-02-04T01:26:20.710Z,100064.81
2019-02-04T01:28:47.587Z,100072.30
2019-02-04T01:31:14.324Z,100067.53
2019-02-04T01:33:41.082Z,100073.33
2019-02-04T01:36:07.773Z,100075.56
2019-02-04T01:38:35.048Z,100076.31
2019-02-04T01:41:02.186Z,100070.73
2019-02-04T01:43:29.148Z,100084.14
2019-02-04T01:45:55.942Z,100086.20
2019-02-04T01:48:22.712Z,100083.56
2019-02-04T01:50:49.851Z,100086.57
2019-02-04T01:53:16.606Z,100094.72
2019-02-04T01:55:43.337Z,100088.20
2019-02-04T01:58:10.318Z,100092.78
2019-02-04T02:00:37.886Z,100099.48
2019-02-04T02:03:04.618Z,100090.73
2019-02-04T02:05:31.403Z,100091.37
2019-02-04T02:07:58.640Z,100095.09
2019-02-04T02:10:25.829Z,100102.08
2019-02-04T02:12:55.163Z,100096.72
2019-02-04T02:15:21.930Z,100113.61
2019-02-04T02:17:49.194Z,100109.16
2019-02-04T02:20:18.551Z,100120.54
2019-02-04T02:22:45.349Z,100126.56
2019-02-04T02:25:12.102Z,100122.59
2019-02-04T02:27:39.060Z,100126.13
2019-02-04T02:30:12.430Z,100121.78
2019-02-04T02:32:39.488Z,100125.80
2019-02-04T02:35:06.848Z,100127.98
2019-02-04T02:37:33.826Z,100119.81
2019-02-04T02:40:00.892Z,100128.65
2019-02-04T02:42:27.987Z,100126.56
2019-02-04T02:44:54.723Z,100128.77
2019-02-04T02:47:21.490Z,100123.75
2019-02-04T02:49:50.826Z,100128.41
2019-02-04T02:52:17.902Z,100130.97
2019-02-04T02:54:44.993Z,100139.75
2019-02-04T02:57:15.048Z,100124.83
2019-02-04T02:59:41.795Z,100128.88
2019-02-04T03:02:08.677Z,100129.52
2019-02-04T03:04:35.600Z,100128.70
2019-02-04T03:07:02.861Z,100132.84
2019-02-04T03:09:29.931Z,100127.44
2019-02-04T03:11:56.650Z,100113.42
2019-02-04T03:14:23.407Z,100117.84
2019-02-04T03:16:50.136Z,100124.78
2019-02-04T03:19:16.876Z,100124.56
2019-02-04T03:21:43.652Z,100130.23
2019-02-04T03:24:10.862Z,100121.51
2019-02-04T03:26:37.812Z,100124.95
2019-02-04T03:29:05.191Z,100133.30
2019-02-04T03:31:32.050Z,100151.30
2019-02-04T03:33:58.762Z,100124.28
2019-02-04T03:36:25.594Z,100120.20
2019-02-04T03:38:55.592Z,100119.05
2019-02-04T03:41:22.450Z,100121.41
2019-02-04T03:43:49.309Z,100119.15
2019-02-04T03:46:16.057Z,100134.45
2019-02-04T03:48:43.366Z,100121.93
2019-02-04T03:51:10.125Z,100117.14
2019-02-04T03:53:37.008Z,100117.95
2019-02-04T03:56:03.875Z,100107.42
2019-02-04T03:58:33.900Z,100111.80
2019-02-04T04:01:00.654Z,100113.06
2019-02-04T04:03:27.525Z,100108.45
2019-02-04T04:05:54.335Z,100106.20
2019-02-04T04:08:23.026Z,100103.90
2019-02-04T04:10:49.867Z,100125.33
2019-02-04T04:13:16.679Z,100127.25
2019-02-04T04:15:43.735Z,100138.57
2019-02-04T04:18:15.934Z,100134.64
2019-02-04T04:20:39.098Z,100136.60
2019-02-04T04:23:05.807Z,100145.73
2019-02-04T04:25:32.545Z,100154.34
2019-02-04T04:27:59.288Z,100149.34
2019-02-04T04:30:26.043Z,100140.87
2019-02-04T04:32:53.122Z,100148.26
2019-02-04T04:35:19.869Z,100147.59
2019-02-04T04:37:46.616Z,100146.63
2019-02-04T04:40:13.989Z,100151.52
2019-02-04T04:42:40.721Z,100146.19
2019-02-04T04:45:08.965Z,100149.92
2019-02-04T04:47:35.729Z,100149.27
2019-02-04T04:50:03.586Z,100147.81
2019-02-04T04:52:30.324Z,100151.27
2019-02-04T04:54:57.062Z,100142.63
2019-02-04T04:57:23.779Z,100150.64
2019-02-04T04:59:50.565Z,100157.81
2019-02-04T05:02:17.291Z,100159.47
2019-02-04T05:04:46.213Z,100163.69
2019-02-04T05:07:13.328Z,100158.22
2019-02-04T05:09:40.119Z,100158.86
2019-02-04T05:12:07.092Z,100151.38
2019-02-04T05:14:33.829Z,100142.57
2019-02-04T05:17:02.510Z,100148.05
2019-02-04T05:19:29.230Z,100149.36
2019-02-04T05:21:55.982Z,100149.36
2019-02-04T05:24:22.713Z,100145.84
2019-02-04T05:26:49.472Z,100146.67
2019-02-04T05:29:16.191Z,100145.98
2019-02-04T05:31:42.975Z,100140.28
2019-02-04T05:34:09.840Z,100136.22
2019-02-04T05:36:36.939Z,100128.87
2019-02-04T05:39:06.345Z,100130.17
2019-02-04T05:41:33.583Z,100125.83
2019-02-04T05:44:00.311Z,100112.96
2019-02-04T05:46:27.302Z,100123.06
2019-02-04T05:48:55.532Z,100116.72
2019-02-04T05:51:22.315Z,100110.72
2019-02-04T05:53:49.032Z,100119.38
2019-02-04T05:56:15.828Z,100122.48
2019-02-04T05:58:45.169Z,100117.95
2019-02-04T06:01:11.951Z,100119.58
2019-02-04T06:03:38.980Z,100121.21
2019-02-04T06:06:05.745Z,100127.04
2019-02-04T06:08:32.484Z,100129.28
2019-02-04T06:10:59.286Z,100129.28
2019-02-04T06:13:26.264Z,100135.13
2019-02-04T06:15:53.086Z,100129.11
2019-02-04T06:18:20.291Z,100126.18
2019-02-04T06:20:47.070Z,100135.61
2019-02-04T06:23:13.858Z,100135.77
2019-02-04T06:25:40.624Z,100139.17
2019-02-04T06:28:07.393Z,100144.70
2019-02-04T06:30:34.438Z,100154.14
2019-02-04T06:33:01.173Z,100157.89
2019-02-04T06:35:28.214Z,100152.69
2019-02-04T06:37:55.018Z,100165.82
2019-02-04T06:40:23.741Z,100168.61
2019-02-04T06:42:50.843Z,100163.56
2019-02-04T06:45:17.699Z,100166.80
2019-02-04T06:47:44.663Z,100167.93
2019-02-04T06:50:14.060Z,100174.90
2019-02-04T06:52:41.186Z,100182.51
2019-02-04T06:55:11.370Z,100185.42
2019-02-04T06:57:38.213Z,100190.45
2019-02-04T07:00:08.310Z,100192.09
2019-02-04T07:02:35.603Z,100191.27
2019-02-04T07:05:03.689Z,100188.98
2019-02-04T07:07:30.458Z,100202.28
2019-02-04T07:09:57.673Z,100199.38
2019-02-04T07:12:24.542Z,100199.24
2019-02-04T07:14:51.518Z,100213.02
2019-02-04T07:17:19.979Z,100213.52
2019-02-04T07:19:46.696Z,100213.05
2019-02-04T07:22:13.404Z,100219.52
2019-02-04T07:24:42.772Z,100218.41
2019-02-04T07:27:08.756Z,100223.77
2019-02-04T07:29:35.702Z,100234.30
2019-02-04T07:32:02.680Z,100226.52
2019-02-04T07:34:29.536Z,100233.66
2019-02-04T07:36:58.094Z,100241.95
2019-02-04T07:39:25.173Z,100230.55
2019-02-04T07:41:52.194Z,100226.68
2019-02-04T07:44:19.448Z,100230.08
2019-02-04T07:46:49.697Z,100232.33
2019-02-04T07:49:16.802Z,100228.92
2019-02-04T07:51:45.975Z,100227.28
2019-02-04T07:54:12.720Z,100230.50
2019-02-04T07:56:39.594Z,100216.66
2019-02-04T07:59:06.533Z,100224.28
2019-02-04T08:01:33.598Z,100217.12
2019-02-04T08:04:00.531Z,100217.42
2019-02-04T08:06:27.251Z,100257.16
2019-02-04T08:08:54.180Z,100208.05
2019-02-04T08:11:21.214Z,100228.02
2019-02-04T08:13:47.982Z,100216.48
2019-02-04T08:16:17.918Z,100221.86
2019-02-04T08:18:45.810Z,100214.90
2019-02-04T08:21:12.524Z,100211.14
2019-02-04T08:23:39.452Z,100212.10
2019-02-04T08:26:06.212Z,100215.83
2019-02-04T08:28:33.090Z,100213.72
2019-02-04T08:30:59.836Z,100212.34
2019-02-04T08:33:26.665Z,100211.48
2019-02-04T08:35:53.450Z,100209.83
2019-02-04T08:38:25.047Z,100201.00
2019-02-04T08:40:54.552Z,100196.41
2019-02-04T08:43:21.452Z,100197.98
2019-02-04T08:45:48.450Z,100193.05
2019-02-04T08:48:15.312Z,100183.27
2019-02-04T08:50:44.241Z,100187.03
2019-02-04T08:53:14.203Z,100190.27
2019-02-04T08:55:42.255Z,100191.66
2019-02-04T08:58:09.316Z,100197.23
2019-02-04T09:00:36.245Z,100204.87
2019-02-04T09:03:02.980Z,100216.25
2019-02-04T09:05:29.731Z,100219.76
2019-02-04T09:07:56.740Z,100220.31
2019-02-04T09:10:29.038Z,100218.23
2019-02-04T09:12:55.876Z,100230.66
2019-02-04T09:15:22.841Z,100227.34
2019-02-04T09:17:49.597Z,100226.47
2019-02-04T09:20:16.497Z,100222.23
2019-02-04T09:22:43.835Z,100224.60
2019-02-04T09:25:11.804Z,100225.67
2019-02-04T09:27:42.060Z,100216.30
2019-02-04T09:30:15.570Z,100226.78
2019-02-04T09:33:07.244Z,100224.66
2019-02-04T09:35:25.898Z,100223.94
2019-02-04T09:37:52.733Z,100227.64
2019-02-04T09:40:28.133Z,100224.21
2019-02-04T09:42:55.119Z,100209.00
2019-02-04T09:45:26.971Z,100205.89
2019-02-04T09:47:51.130Z,100208.05
2019-02-04T09:50:21.979Z,100208.38
2019-02-04T09:52:47.734Z,100202.38
2019-02-04T09:55:17.460Z,100197.31
2019-02-04T09:57:44.506Z,100190.35
2019-02-04T10:00:14.422Z,100183.66
2019-02-04T10:02:41.165Z,100183.66
2019-02-04T10:05:09.685Z,100187.45
2019-02-04T10:07:36.498Z,100179.22
2019-02-04T10:10:03.747Z,100180.04
2019-02-04T10:12:30.493Z,100178.59
2019-02-04T10:14:57.403Z,100181.51
2019-02-04T10:17:24.523Z,100160.64
2019-02-04T10:19:53.228Z,100170.54
2019-02-04T10:22:20.606Z,100152.56
2019-02-04T10:24:47.337Z,100152.56
2019-02-04T10:27:16.153Z,100155.19
2019-02-04T10:29:43.488Z,100152.13
2019-02-04T10:32:10.267Z,100144.33
2019-02-04T10:34:37.048Z,100144.33
2019-02-04T10:37:03.927Z,100143.05
2019-02-04T10:39:32.977Z,100151.03
2019-02-04T10:41:59.843Z,100154.67
2019-02-04T10:44:26.740Z,100133.16
2019-02-04T10:46:53.825Z,100132.95
2019-02-04T10:49:22.574Z,100129.97
2019-02-04T10:51:49.636Z,100123.61
2019-02-04T10:54:16.389Z,100117.75
2019-02-04T10:56:43.143Z,100117.75
2019-02-04T10:59:10.208Z,100108.12
2019-02-04T11:01:37.112Z,100102.89
2019-02-04T11:04:07.268Z,100102.89
2019-02-04T11:06:34.265Z,100108.64
2019-02-04T11:09:01.098Z,100086.08
2019-02-04T11:11:27.878Z,100080.31
2019-02-04T11:13:55.038Z,100083.36
2019-02-04T11:16:21.752Z,100066.61
2019-02-04T11:18:48.674Z,100066.61
2019-02-04T11:21:15.403Z,100072.66
2019-02-04T11:23:42.587Z,100061.56
2019-02-04T11:26:09.606Z,100060.05
2019-02-04T11:28:36.727Z,100060.03
2019-02-04T11:31:08.607Z,100069.62
2019-02-04T11:33:35.459Z,100069.62
2019-02-04T11:36:02.278Z,100066.42
2019-02-04T11:38:29.513Z,100066.42
2019-02-04T11:40:56.566Z,100065.42
2019-02-04T11:43:23.958Z,100063.78
2019-02-04T11:45:50.819Z,100061.00
2019-02-04T11:48:19.506Z,100060.09
2019-02-04T11:50:46.949Z,100060.09
2019-02-04T11:53:14.269Z,100056.28
2019-02-04T11:55:41.015Z,100060.00
2019-02-04T11:58:08.183Z,100060.22
2019-02-04T12:00:35.659Z,100049.52
2019-02-04T12:03:02.499Z,100049.52
2019-02-04T12:05:31.143Z,100047.75
2019-02-04T12:08:00.415Z,100052.67
2019-02-04T12:10:30.294Z,100057.66
2019-02-04T12:12:57.474Z,100057.66
2019-02-04T12:15:24.512Z,100029.31
2019-02-04T12:17:51.414Z,100026.09
2019-02-04T12:20:21.407Z,100026.09
2019-02-04T12:22:49.262Z,100033.84
2019-02-04T12:25:18.544Z,100028.42
2019-02-04T12:27:45.496Z,100028.42
2019-02-04T12:30:22.787Z,100029.59
2019-02-04T12:32:49.574Z,100028.77
2019-02-04T12:35:17.324Z,100026.84
2019-02-04T12:37:44.584Z,100022.38
2019-02-04T12:40:11.459Z,100015.28
2019-02-04T12:42:38.340Z,100015.28
2019-02-04T12:45:09.812Z,100015.45
2019-02-04T12:47:36.575Z,100017.24
2019-02-04T12:50:03.910Z,100016.09
2019-02-04T12:52:30.935Z,100004.84
2019-02-04T12:54:57.854Z,100007.95
2019-02-04T12:57:25.155Z,100001.11
2019-02-04T12:59:52.086Z,100004.31
2019-02-04T13:02:19.230Z,100000.44
2019-02-04T13:04:45.949Z,99993.09
2019-02-04T13:07:12.750Z,99989.06
2019-02-04T13:09:39.606Z,99995.34
2019-02-04T13:12:09.067Z,99988.41
2019-02-04T13:14:36.572Z,99983.70
2019-02-04T13:17:03.431Z,99979.48
2019-02-04T13:19:31.078Z,99980.33
2019-02-04T13:21:57.911Z,99981.53
2019-02-04T13:24:24.800Z,99989.61
2019-02-04T13:26:52.166Z,99990.17
2019-02-04T13:29:19.519Z,99977.77
2019-02-04T13:31:48.165Z,99975.22
2019-02-04T13:34:16.493Z,99978.27
2019-02-04T13:36:43.521Z,99976.27
2019-02-04T13:39:10.269Z,99971.06
2019-02-04T13:41:37.225Z,99968.50
2019-02-04T13:44:03.950Z,99968.16
2019-02-04T13:46:31.132Z,99959.58
2019-02-04T13:48:58.032Z,99954.31
2019-02-04T13:51:25.150Z,99957.43
2019-02-04T13:53:52.945Z,99964.90
2019-02-04T13:56:19.897Z,99957.25
2019-02-04T13:58:55.746Z,99957.48
2019-02-04T14:01:22.790Z,99950.80
2019-02-04T14:03:49.674Z,99945.89
2019-02-04T14:06:16.501Z,99948.28
2019-02-04T14:08:43.255Z,99944.59
2019-02-04T14:11:12.766Z,99942.46
2019-02-04T14:13:39.341Z,99957.78
2019-02-04T14:16:06.095Z,99944.03
2019-02-04T14:18:33.101Z,99943.69
2019-02-04T14:21:00.807Z,99939.73
2019-02-04T14:23:31.574Z,99941.49
2019-02-04T14:26:00.149Z,99936.79
2019-02-04T14:28:26.938Z,99944.91
2019-02-04T14:30:54.243Z,99932.77
2019-02-04T14:33:21.001Z,99934.92
2019-02-04T14:35:49.934Z,99927.52
2019-02-04T14:38:16.850Z,99925.97
2019-02-04T14:40:48.117Z,99920.09
2019-02-04T14:44:09.166Z,99912.94
2019-02-04T14:47:05.773Z,99909.97
2019-02-04T14:50:19.913Z,99902.48
2019-02-04T14:53:20.830Z,99898.22
2019-02-04T14:56:08.338Z,99899.99
2019-02-04T14:58:52.277Z,99894.20
2019-02-04T15:02:01.299Z,99894.33
2019-02-04T15:05:12.659Z,99895.09
2019-02-04T15:08:35.175Z,99895.09
2019-02-04T15:11:39.119Z,99894.06
2019-02-04T15:14:46.786Z,99896.23
2019-02-04T15:17:18.215Z,99894.20
2019-02-04T15:20:24.129Z,99888.58
2019-02-04T15:23:19.613Z,99888.58
2019-02-04T15:26:12.431Z,99894.20
2019-02-04T15:29:01.380Z,99894.20
2019-02-04T15:31:57.215Z,99895.47
2019-02-04T15:35:04.926Z,99898.16
2019-02-04T15:37:47.954Z,99898.16
2019-02-04T15:40:42.627Z,99930.76
2019-02-04T15:43:36.317Z,99925.62
2019-02-04T15:46:53.613Z,99923.88
2019-02-04T15:50:02.562Z,99923.34
2019-02-04T15:52:29.475Z,99925.38
2019-02-04T15:54:56.487Z,99923.39
2019-02-04T15:57:23.712Z,99913.56
2019-02-04T15:59:50.759Z,99925.66
2019-02-04T16:02:17.981Z,99915.38
2019-02-04T16:04:44.933Z,99915.17
2019-02-04T16:07:14.890Z,99924.75
2019-02-04T16:09:41.709Z,99922.08
2019-02-04T16:12:08.479Z,99922.08
2019-02-04T16:14:35.473Z,99918.22
2019-02-04T16:17:06.157Z,99923.03
2019-02-04T16:19:32.947Z,99927.96
2019-02-04T16:22:01.183Z,99925.92
2019-02-04T16:24:28.176Z,99923.96
2019-02-04T16:26:57.842Z,99930.37
2019-02-04T16:29:25.203Z,99932.99
2019-02-04T16:31:52.313Z,99937.77
2019-02-04T16:34:20.028Z,99941.30
2019-02-04T16:36:49.780Z,99948.23
2019-02-04T16:39:17.373Z,99944.64
2019-02-04T16:41:46.953Z,99938.58
2019-02-04T16:44:13.867Z,99938.08
2019-02-04T16:46:41.151Z,99936.15
2019-02-04T16:49:08.094Z,99936.15
2019-02-04T16:51:35.126Z,99930.24
2019-02-04T16:54:09.127Z,99941.27
2019-02-04T16:56:36.230Z,99941.17
2019-02-04T16:59:03.096Z,99940.67
2019-02-04T17:01:30.685Z,99935.95
2019-02-04T17:03:57.669Z,99945.44
2019-02-04T17:06:24.798Z,99938.19
2019-02-04T17:08:51.539Z,99934.00
2019-02-04T17:11:19.680Z,99934.00
2019-02-04T17:13:46.437Z,99941.72
2019-02-04T17:16:13.500Z,99941.72
2019-02-04T17:18:40.659Z,99938.17
2019-02-04T17:21:07.791Z,99938.17
2019-02-04T17:23:34.573Z,99944.84
2019-02-04T17:26:01.516Z,99943.17
2019-02-04T17:28:28.427Z,99942.69
2019-02-04T17:30:55.400Z,99943.08
2019-02-04T17:33:22.535Z,99942.88
2019-02-04T17:35:49.312Z,99946.20
2019-02-04T17:38:16.414Z,99941.56
2019-02-04T17:40:43.663Z,99945.70
2019-02-04T17:43:10.408Z,99945.70
2019-02-04T17:45:37.466Z,99950.02
2019-02-04T17:48:04.608Z,99955.04
2019-02-04T17:50:31.452Z,99956.84
2019-02-04T17:52:58.521Z,99956.84
2019-02-04T17:55:25.332Z,99950.78
2019-02-04T17:57:52.937Z,99950.78
2019-02-04T18:00:40.617Z,99946.75
2019-02-04T18:03:07.398Z,99946.75
2019-02-04T18:05:34.541Z,99954.10
2019-02-04T18:08:01.297Z,99954.10
2019-02-04T18:10:28.696Z,99958.54
2019-02-04T18:12:55.416Z,99969.59
2019-02-04T18:15:22.171Z,99969.59
2019-02-04T18:17:49.000Z,99954.23
2019-02-04T18:20:16.223Z,99954.73
2019-02-04T18:22:46.078Z,99967.11
2019-02-04T18:25:13.817Z,99960.98
2019-02-04T18:27:40.528Z,99954.98
2019-02-04T18:30:10.041Z,99955.91
2019-02-04T18:32:36.884Z,99955.91
2019-02-04T18:35:04.433Z,99960.36
2019-02-04T18:37:31.139Z,99964.20
2019-02-04T18:40:00.582Z,99955.51
2019-02-04T18:42:27.298Z,99959.40
2019-02-04T18:44:54.411Z,99959.40
2019-02-04T18:47:23.002Z,99957.28
2019-02-04T18:49:50.187Z,99967.23
2019-02-04T18:52:17.082Z,99950.34
2019-02-04T18:54:44.417Z,99950.34
2019-02-04T18:57:11.378Z,99944.81
2019-02-04T18:59:38.400Z,99929.47
2019-02-04T19:02:05.170Z,99946.08
2019-02-04T19:04:31.907Z,99947.13
2019-02-04T19:06:58.678Z,99958.65
2019-02-04T19:09:25.589Z,99949.42
2019-02-04T19:11:55.592Z,99943.09
2019-02-04T19:14:23.191Z,99954.00
2019-02-04T19:16:50.430Z,99952.89
2019-02-04T19:19:17.478Z,99956.56
2019-02-04T19:21:44.191Z,99956.56
2019-02-04T19:24:11.354Z,99967.62
2019-02-04T19:26:38.246Z,99959.22
2019-02-04T19:29:07.645Z,99958.07
2019-02-04T19:31:34.668Z,99954.31
2019-02-04T19:34:02.046Z,99954.31
2019-02-04T19:36:28.926Z,99949.78
2019-02-04T19:38:55.685Z,99949.78
2019-02-04T19:41:22.431Z,99953.38
2019-02-04T19:43:53.216Z,99953.38
2019-02-04T19:46:20.129Z,99955.30
2019-02-04T19:48:46.861Z,99951.41
2019-02-04T19:51:13.993Z,99952.39
2019-02-04T19:53:40.696Z,99943.01
2019-02-04T19:56:07.645Z,99945.22
2019-02-04T19:58:34.844Z,99897.38
2019-02-04T20:01:01.813Z,99938.24
2019-02-04T20:03:28.612Z,99938.24
2019-02-04T20:05:55.565Z,99941.47
2019-02-04T20:08:22.595Z,99938.28
2019-02-04T20:10:49.900Z,99938.14
2019-02-04T20:13:16.734Z,99939.49
2019-02-04T20:15:43.479Z,99939.49
2019-02-04T20:18:10.516Z,99944.56
2019-02-04T20:20:37.262Z,99937.62
2019-02-04T20:23:04.024Z,99952.88
2019-02-04T20:25:30.931Z,99944.67
2019-02-04T20:27:57.740Z,99943.88
2019-02-04T20:30:30.132Z,99890.98
2019-02-04T20:32:57.102Z,99931.20
2019-02-04T20:35:25.773Z,99931.20
2019-02-04T20:37:52.646Z,99945.06
2019-02-04T20:40:20.624Z,99940.43
2019-02-04T20:42:47.883Z,99940.43
2019-02-04T20:45:15.067Z,99948.04
2019-02-04T20:47:42.162Z,99947.72
2019-02-04T20:50:13.120Z,99950.72
2019-02-04T20:52:40.012Z,99949.62
2019-02-04T20:55:06.758Z,99949.62
2019-02-04T20:57:33.744Z,99949.04
2019-02-04T21:00:00.974Z,99953.77
2019-02-04T21:02:27.817Z,99954.78
2019-02-04T21:04:55.035Z,99949.74
2019-02-04T21:07:21.798Z,99947.23
2019-02-04T21:09:48.766Z,99947.23
2019-02-04T21:12:17.365Z,99943.19
2019-02-04T21:14:44.474Z,99956.33
2019-02-04T21:17:11.829Z,99967.95
2019-02-04T21:19:38.863Z,99960.05
2019-02-04T21:22:05.964Z,99968.33
2019-02-04T21:24:33.002Z,99968.33
2019-02-04T21:27:00.211Z,99967.45
2019-02-04T21:29:26.916Z,99973.09
2019-02-04T21:31:53.693Z,99961.23
2019-02-04T21:34:20.396Z,99962.11
2019-02-04T21:36:47.137Z,99962.11
2019-02-04T21:39:13.983Z,99961.98
2019-02-04T21:41:40.671Z,99950.31
2019-02-04T21:44:08.794Z,99960.61
2019-02-04T21:46:35.544Z,99946.83
2019-02-04T21:49:02.340Z,99949.63
2019-02-04T21:51:31.164Z,99949.63
2019-02-04T21:53:58.005Z,99941.11
2019-02-04T21:56:25.631Z,99941.11
2019-02-04T21:58:52.469Z,99951.00
2019-02-04T22:01:19.276Z,99948.06
2019-02-04T22:03:48.603Z,99948.62
2019-02-04T22:06:15.333Z,99941.80
2019-02-04T22:08:42.070Z,99945.72
2019-02-04T22:11:09.127Z,99947.90
2019-02-04T22:13:37.201Z,99957.94
2019-02-04T22:16:04.031Z,99965.17
2019-02-04T22:18:30.748Z,99959.50
2019-02-04T22:20:57.516Z,99959.50
2019-02-04T22:23:24.261Z,99951.67
2019-02-04T22:25:51.278Z,99948.45
2019-02-04T22:28:18.043Z,99953.05
2019-02-04T22:30:45.275Z,99944.41
2019-02-04T22:33:12.151Z,99941.31
2019-02-04T22:35:38.941Z,99945.91
2019-02-04T22:38:05.646Z,99929.38
2019-02-04T22:40:32.629Z,99933.91
2019-02-04T22:42:59.652Z,99947.40
2019-02-04T22:45:26.399Z,99959.66
2019-02-04T22:47:53.225Z,99944.20
2019-02-04T22:50:22.042Z,99940.98
2019-02-04T22:52:48.771Z,99942.91
2019-02-04T22:55:15.889Z,99953.30
2019-02-04T22:57:42.815Z,99950.14
2019-02-04T23:00:25.674Z,99947.06
2019-02-04T23:02:52.400Z,99957.88
2019-02-04T23:05:21.439Z,99954.58
2019-02-04T23:08:10.741Z,99953.86
2019-02-04T23:10:37.987Z,99959.26
2019-02-04T23:13:05.155Z,99962.09
2019-02-04T23:15:31.970Z,99965.31
2019-02-04T23:17:58.723Z,99965.15
2019-02-04T23:20:25.860Z,99971.34
2019-02-04T23:22:52.978Z,99971.34
2019-02-04T23:25:19.780Z,99983.83
2019-02-04T23:27:46.714Z,99976.94
2019-02-04T23:30:13.517Z,99976.94
2019-02-04T23:32:40.690Z,99978.04
2019-02-04T23:35:07.639Z,99971.31
2019-02-04T23:37:34.713Z,99977.48
2019-02-04T23:40:01.467Z,99974.05
2019-02-04T23:42:28.228Z,99982.09
2019-02-04T23:44:55.525Z,99976.02
2019-02-04T23:47:22.379Z,99975.58
2019-02-04T23:49:49.113Z,99973.88
2019-02-04T23:52:15.845Z,99972.72
2019-02-04T23:54:42.933Z,99972.17
2019-02-04T23:57:10.189Z,99985.22
2019-02-04T23:59:36.896Z,99981.74
